Star Dieppe — LEQZ3 — position and weather

sailwx.info

Track history (hours):
 
Tides and Currents Weather Stations Pressure Air Temp Water Temp Dewpoint Dewpoint Depression Visibility Wind Speed Wind Dir Waves Ship Positions

Star Dieppe

Last reported at 2014-Oct-30 11:33 UTC. Time now 2014-Nov-01 06:27 UTC.
Position N 49°09' W 123°53'.

Length 182 m; draft 8.9 m.

Type: Cargo ship. MMSI: 257439000.

Date/timePositionNaut miles runAvg speedWind from/ knotsBaromVisibWave heightAir tempDewpointWater temp
2014-Oct-30 11:33N 49°09' W 123°53'0 0.0
2014-Oct-30 10:21N 49°09' W 123°53'0 0.0
2014-Oct-30 09:33N 49°09' W 123°53'0 0.0
2014-Oct-30 04:15N 49°09' W 123°53'0 0.0
2014-Oct-29 14:08N 49°09' W 123°53'0 0.0
2014-Oct-29 04:05N 49°09' W 123°53'1 0.7
2014-Oct-29 03:18N 49°09' W 123°53'3 4.4
2014-Oct-29 02:33N 49°13' W 123°52'1211.6
2014-Oct-29 01:33N 49°18' W 123°36'9 9.2
2014-Oct-29 00:33N 49°25' W 123°27'6 5.6
2014-Oct-28 23:29N 49°31' W 123°29'3 0.2
2014-Oct-28 09:17N 49°28' W 123°28'810.8
2014-Oct-28 08:33N 49°21' W 123°27'1212.5
2014-Oct-28 07:34N 49°08' W 123°24'1212.3
2014-Oct-28 06:33N 48°59' W 123°12'1211.8
2014-Oct-28 05:33N 48°49' W 123°01'9 9.2
2014-Oct-28 04:33N 48°43' W 123°11'1111.2
2014-Oct-28 03:34N 48°51' W 123°23'1010.0
2014-Oct-28 02:33N 48°56' W 123°37'4 2.5
2014-Oct-28 01:09N 48°52' W 123°38'0 0.0
2014-Oct-27 22:20N 48°52' W 123°38'0 0.0
2014-Oct-27 21:32N 48°52' W 123°38'0 0.0
2014-Oct-27 20:17N 48°52' W 123°38'0 0.0
2014-Oct-27 19:17N 48°52' W 123°38'0 0.0
2014-Oct-27 18:29N 48°52' W 123°38'0 0.0
2014-Oct-27 17:29N 48°52' W 123°38'0 0.0
2014-Oct-27 16:29N 48°52' W 123°38'0 0.0
2014-Oct-27 15:29N 48°52' W 123°38'0 0.0
2014-Oct-27 14:05N 48°52' W 123°38'0 0.0
2014-Oct-27 13:23N 48°52' W 123°38'0 0.0
2014-Oct-27 12:17N 48°52' W 123°38'0 0.0
2014-Oct-27 11:16N 48°52' W 123°38'0 0.0
2014-Oct-27 10:28N 48°52' W 123°38'0 0.0
2014-Oct-27 09:28N 48°52' W 123°38'0 0.0
2014-Oct-27 08:28N 48°52' W 123°38'0 0.0
2014-Oct-27 07:10N 48°52' W 123°38'0 0.0
2014-Oct-27 05:22N 48°52' W 123°38'0 0.0
2014-Oct-27 04:10N 48°52' W 123°38'0 0.0
2014-Oct-27 03:22N 48°52' W 123°38'0 0.0
2014-Oct-27 02:22N 48°52' W 123°38'0 0.0
2014-Oct-27 01:10N 48°52' W 123°38'0 0.0
2014-Oct-27 00:22N 48°52' W 123°38'0 0.0
2014-Oct-26 23:27N 48°52' W 123°38'0 0.0
2014-Oct-26 22:27N 48°52' W 123°38'0 0.0
2014-Oct-26 21:21N 48°52' W 123°38'0 0.0
2014-Oct-26 19:30N 48°52' W 123°38'0 0.0
2014-Oct-26 18:33N 48°52' W 123°38'0 0.0
2014-Oct-26 17:33N 48°52' W 123°38'0 0.0
2014-Oct-26 16:33N 48°52' W 123°38'1 1.0
2014-Oct-26 15:31N 48°52' W 123°37'5 4.9
2014-Oct-26 14:31N 48°55' W 123°31'1211.8
2014-Oct-26 13:31N 48°46' W 123°20'10 9.8
2014-Oct-26 12:31N 48°46' W 123°05'8 8.3
2014-Oct-26 11:31N 48°54' W 123°08'1212.4
2014-Oct-26 10:31N 49°02' W 123°22'10 9.6
2014-Oct-26 09:31N 49°06' W 123°08'10 9.1
2014-Oct-26 08:26N 49°11' W 122°55'0 0.0
2014-Oct-26 07:32N 49°11' W 122°55'0 0.0
2014-Oct-26 06:32N 49°11' W 122°55'0 0.0
2014-Oct-26 05:32N 49°11' W 122°55'0 0.0
2014-Oct-26 04:32N 49°11' W 122°55'0 0.0
2014-Oct-26 03:28N 49°11' W 122°55'0 0.0
2014-Oct-26 02:28N 49°11' W 122°55'0 0.0
2014-Oct-26 01:31N 49°11' W 122°55'0 0.0
2014-Oct-26 00:31N 49°11' W 122°55'0 0.0
2014-Oct-25 23:31N 49°11' W 122°55'0 0.0
2014-Oct-25 22:31N 49°11' W 122°55'0 0.0
2014-Oct-25 21:31N 49°11' W 122°55'0 0.0
2014-Oct-25 20:31N 49°11' W 122°55'0 0.0
2014-Oct-25 19:34N 49°11' W 122°55'0 0.0
2014-Oct-25 18:33N 49°11' W 122°55'0 0.0
2014-Oct-25 17:33N 49°11' W 122°55'0 0.0
2014-Oct-25 16:33N 49°11' W 122°55'0 0.0
2014-Oct-25 15:33N 49°11' W 122°55'0 0.0
2014-Oct-25 14:33N 49°11' W 122°55'0 0.0
2014-Oct-25 13:33N 49°11' W 122°55'0 0.0
2014-Oct-25 12:33N 49°11' W 122°55'0 0.0
2014-Oct-25 11:33N 49°11' W 122°55'0 0.0
2014-Oct-25 10:32N 49°11' W 122°55'0 0.0
2014-Oct-25 09:32N 49°11' W 122°55'0 0.0
2014-Oct-25 08:32N 49°11' W 122°55'0 0.0
2014-Oct-25 07:32N 49°11' W 122°55'0 0.0
2014-Oct-25 06:32N 49°11' W 122°55'0 0.0
2014-Oct-25 05:32N 49°11' W 122°55'0 0.0
2014-Oct-25 04:32N 49°11' W 122°55'0 0.0
2014-Oct-25 03:32N 49°11' W 122°55'0 0.0
2014-Oct-25 02:32N 49°11' W 122°55'0 0.0
2014-Oct-25 01:32N 49°11' W 122°55'0 0.0
2014-Oct-25 00:31N 49°11' W 122°55'0 0.0
2014-Oct-24 23:31N 49°11' W 122°55'0 0.0
2014-Oct-24 22:28N 49°11' W 122°55'0 0.0
2014-Oct-24 21:31N 49°11' W 122°55'0 0.0
2014-Oct-24 20:31N 49°11' W 122°55'0 0.0
2014-Oct-24 19:31N 49°11' W 122°55'0 0.0
2014-Oct-24 18:31N 49°11' W 122°55'0 0.0
2014-Oct-24 17:31N 49°11' W 122°55'0 0.0
2014-Oct-24 16:33N 49°11' W 122°55'0 0.0
2014-Oct-24 15:33N 49°11' W 122°55'0 0.0
2014-Oct-24 14:33N 49°11' W 122°55'0 0.0
2014-Oct-24 13:30N 49°11' W 122°55'0 0.0
2014-Oct-24 12:33N 49°11' W 122°55'0 0.1
2014-Oct-24 11:33N 49°11' W 122°55'8 7.8
2014-Oct-24 10:34N 49°07' W 123°06'10 9.6
2014-Oct-24 09:34N 49°06' W 123°20'1110.9
2014-Oct-24 08:34N 48°57' W 123°10'1211.9
2014-Oct-24 07:33N 48°46' W 123°02'1111.1
2014-Oct-24 06:33N 48°45' W 123°19'1412.5
2014-Oct-24 05:28N 48°56' W 123°32'5 0.6
2014-Oct-23 21:10N 48°52' W 123°38'0 0.0
2014-Oct-23 20:13N 48°52' W 123°38'0 0.0
2014-Oct-23 05:14N 48°52' W 123°38'1 1.7
2014-Oct-23 04:33N 48°53' W 123°37'5 5.2
2014-Oct-23 03:33N 48°55' W 123°30'1111.0
2014-Oct-23 02:33N 48°46' W 123°20'1111.4
2014-Oct-23 01:33N 48°36' W 123°13'1211.8
2014-Oct-23 00:33N 48°24' W 123°11'1312.6
2014-Oct-22 23:34N 48°16' W 123°26'1312.5
2014-Oct-22 22:32N 48°13' W 123°45'1413.9
2014-Oct-22 21:33N 48°16' W 124°05'1413.8
2014-Oct-22 20:33N 48°22' W 124°23'1312.8
2014-Oct-22 19:33N 48°28' W 124°41'1211.5
2014-Oct-22 18:33N 48°28' W 124°58'9 9.2
2014-Oct-22 17:33N 48°30' W 125°12'8 8.0
2014-Oct-22 16:33N 48°34' W 125°22'7 7.3
2014-Oct-22 15:33N 48°38' W 125°31'7 6.9
2014-Oct-22 14:33N 48°43' W 125°39'7 7.2
2014-Oct-22 13:33N 48°48' W 125°47'8 7.7
2014-Oct-22 12:33N 48°53' W 125°56'7 7.3
2014-Oct-22 11:33N 48°58' W 126°04'7 7.3
2014-Oct-22 10:33N 49°03' W 126°12'7 7.1
2014-Oct-22 09:33N 49°08' W 126°20'8 8.3
2014-Oct-22 08:33N 49°12' W 126°30'9 8.6
2014-Oct-22 07:33N 49°17' W 126°41'10 9.6
2014-Oct-22 06:33N 49°24' W 126°51'1010.2
2014-Oct-22 05:33N 49°31' W 127°03'1010.0
2014-Oct-22 04:32N 49°37' W 127°15'  
Track history (hours):
 
Tides and Currents Weather Stations Pressure Air Temp Water Temp Dewpoint Dewpoint Depression Visibility Wind Speed Wind Dir Waves Ship Positions

Star Dieppe

Last reported at 2014-Oct-30 11:33 UTC. Time now 2014-Nov-01 06:27 UTC.
Position N 49°09' W 123°53'.

Length 182 m; draft 8.9 m.

Type: Cargo ship. MMSI: 257439000.

Date/timePositionNaut miles runAvg speedWind from/ knotsBaromVisibWave heightAir tempDewpointWater temp
2014-Oct-30 11:33N 49°09' W 123°53'0 0.0
2014-Oct-30 10:21N 49°09' W 123°53'0 0.0
2014-Oct-30 09:33N 49°09' W 123°53'0 0.0
2014-Oct-30 04:15N 49°09' W 123°53'0 0.0
2014-Oct-29 14:08N 49°09' W 123°53'0 0.0
2014-Oct-29 04:05N 49°09' W 123°53'1 0.7
2014-Oct-29 03:18N 49°09' W 123°53'3 4.4
2014-Oct-29 02:33N 49°13' W 123°52'1211.6
2014-Oct-29 01:33N 49°18' W 123°36'9 9.2
2014-Oct-29 00:33N 49°25' W 123°27'6 5.6
2014-Oct-28 23:29N 49°31' W 123°29'3 0.2
2014-Oct-28 09:17N 49°28' W 123°28'810.8
2014-Oct-28 08:33N 49°21' W 123°27'1212.5
2014-Oct-28 07:34N 49°08' W 123°24'1212.3
2014-Oct-28 06:33N 48°59' W 123°12'1211.8
2014-Oct-28 05:33N 48°49' W 123°01'9 9.2
2014-Oct-28 04:33N 48°43' W 123°11'1111.2
2014-Oct-28 03:34N 48°51' W 123°23'1010.0
2014-Oct-28 02:33N 48°56' W 123°37'4 2.5
2014-Oct-28 01:09N 48°52' W 123°38'0 0.0
2014-Oct-27 22:20N 48°52' W 123°38'0 0.0
2014-Oct-27 21:32N 48°52' W 123°38'0 0.0
2014-Oct-27 20:17N 48°52' W 123°38'0 0.0
2014-Oct-27 19:17N 48°52' W 123°38'0 0.0
2014-Oct-27 18:29N 48°52' W 123°38'0 0.0
2014-Oct-27 17:29N 48°52' W 123°38'0 0.0
2014-Oct-27 16:29N 48°52' W 123°38'0 0.0
2014-Oct-27 15:29N 48°52' W 123°38'0 0.0
2014-Oct-27 14:05N 48°52' W 123°38'0 0.0
2014-Oct-27 13:23N 48°52' W 123°38'0 0.0
2014-Oct-27 12:17N 48°52' W 123°38'0 0.0
2014-Oct-27 11:16N 48°52' W 123°38'0 0.0
2014-Oct-27 10:28N 48°52' W 123°38'0 0.0
2014-Oct-27 09:28N 48°52' W 123°38'0 0.0
2014-Oct-27 08:28N 48°52' W 123°38'0 0.0
2014-Oct-27 07:10N 48°52' W 123°38'0 0.0
2014-Oct-27 05:22N 48°52' W 123°38'0 0.0
2014-Oct-27 04:10N 48°52' W 123°38'0 0.0
2014-Oct-27 03:22N 48°52' W 123°38'0 0.0
2014-Oct-27 02:22N 48°52' W 123°38'0 0.0
2014-Oct-27 01:10N 48°52' W 123°38'0 0.0
2014-Oct-27 00:22N 48°52' W 123°38'0 0.0
2014-Oct-26 23:27N 48°52' W 123°38'0 0.0
2014-Oct-26 22:27N 48°52' W 123°38'0 0.0
2014-Oct-26 21:21N 48°52' W 123°38'0 0.0
2014-Oct-26 19:30N 48°52' W 123°38'0 0.0
2014-Oct-26 18:33N 48°52' W 123°38'0 0.0
2014-Oct-26 17:33N 48°52' W 123°38'0 0.0
2014-Oct-26 16:33N 48°52' W 123°38'1 1.0
2014-Oct-26 15:31N 48°52' W 123°37'5 4.9
2014-Oct-26 14:31N 48°55' W 123°31'1211.8
2014-Oct-26 13:31N 48°46' W 123°20'10 9.8
2014-Oct-26 12:31N 48°46' W 123°05'8 8.3
2014-Oct-26 11:31N 48°54' W 123°08'1212.4
2014-Oct-26 10:31N 49°02' W 123°22'10 9.6
2014-Oct-26 09:31N 49°06' W 123°08'10 9.1
2014-Oct-26 08:26N 49°11' W 122°55'0 0.0
2014-Oct-26 07:32N 49°11' W 122°55'0 0.0
2014-Oct-26 06:32N 49°11' W 122°55'0 0.0
2014-Oct-26 05:32N 49°11' W 122°55'0 0.0
2014-Oct-26 04:32N 49°11' W 122°55'0 0.0
2014-Oct-26 03:28N 49°11' W 122°55'0 0.0
2014-Oct-26 02:28N 49°11' W 122°55'0 0.0
2014-Oct-26 01:31N 49°11' W 122°55'0 0.0
2014-Oct-26 00:31N 49°11' W 122°55'0 0.0
2014-Oct-25 23:31N 49°11' W 122°55'0 0.0
2014-Oct-25 22:31N 49°11' W 122°55'0 0.0
2014-Oct-25 21:31N 49°11' W 122°55'0 0.0
2014-Oct-25 20:31N 49°11' W 122°55'0 0.0
2014-Oct-25 19:34N 49°11' W 122°55'0 0.0
2014-Oct-25 18:33N 49°11' W 122°55'0 0.0
2014-Oct-25 17:33N 49°11' W 122°55'0 0.0
2014-Oct-25 16:33N 49°11' W 122°55'0 0.0
2014-Oct-25 15:33N 49°11' W 122°55'0 0.0
2014-Oct-25 14:33N 49°11' W 122°55'0 0.0
2014-Oct-25 13:33N 49°11' W 122°55'0 0.0
2014-Oct-25 12:33N 49°11' W 122°55'0 0.0
2014-Oct-25 11:33N 49°11' W 122°55'0 0.0
2014-Oct-25 10:32N 49°11' W 122°55'0 0.0
2014-Oct-25 09:32N 49°11' W 122°55'0 0.0
2014-Oct-25 08:32N 49°11' W 122°55'0 0.0
2014-Oct-25 07:32N 49°11' W 122°55'0 0.0
2014-Oct-25 06:32N 49°11' W 122°55'0 0.0
2014-Oct-25 05:32N 49°11' W 122°55'0 0.0
2014-Oct-25 04:32N 49°11' W 122°55'0 0.0
2014-Oct-25 03:32N 49°11' W 122°55'0 0.0
2014-Oct-25 02:32N 49°11' W 122°55'0 0.0
2014-Oct-25 01:32N 49°11' W 122°55'0 0.0
2014-Oct-25 00:31N 49°11' W 122°55'0 0.0
2014-Oct-24 23:31N 49°11' W 122°55'0 0.0
2014-Oct-24 22:28N 49°11' W 122°55'0 0.0
2014-Oct-24 21:31N 49°11' W 122°55'0 0.0
2014-Oct-24 20:31N 49°11' W 122°55'0 0.0
2014-Oct-24 19:31N 49°11' W 122°55'0 0.0
2014-Oct-24 18:31N 49°11' W 122°55'0 0.0
2014-Oct-24 17:31N 49°11' W 122°55'0 0.0
2014-Oct-24 16:33N 49°11' W 122°55'0 0.0
2014-Oct-24 15:33N 49°11' W 122°55'0 0.0
2014-Oct-24 14:33N 49°11' W 122°55'0 0.0
2014-Oct-24 13:30N 49°11' W 122°55'0 0.0
2014-Oct-24 12:33N 49°11' W 122°55'0 0.1
2014-Oct-24 11:33N 49°11' W 122°55'8 7.8
2014-Oct-24 10:34N 49°07' W 123°06'10 9.6
2014-Oct-24 09:34N 49°06' W 123°20'1110.9
2014-Oct-24 08:34N 48°57' W 123°10'1211.9
2014-Oct-24 07:33N 48°46' W 123°02'1111.1
2014-Oct-24 06:33N 48°45' W 123°19'1412.5
2014-Oct-24 05:28N 48°56' W 123°32'5 0.6
2014-Oct-23 21:10N 48°52' W 123°38'0 0.0
2014-Oct-23 20:13N 48°52' W 123°38'0 0.0
2014-Oct-23 05:14N 48°52' W 123°38'1 1.7
2014-Oct-23 04:33N 48°53' W 123°37'5 5.2
2014-Oct-23 03:33N 48°55' W 123°30'1111.0
2014-Oct-23 02:33N 48°46' W 123°20'1111.4
2014-Oct-23 01:33N 48°36' W 123°13'1211.8
2014-Oct-23 00:33N 48°24' W 123°11'1312.6
2014-Oct-22 23:34N 48°16' W 123°26'1312.5
2014-Oct-22 22:32N 48°13' W 123°45'1413.9
2014-Oct-22 21:33N 48°16' W 124°05'1413.8
2014-Oct-22 20:33N 48°22' W 124°23'1312.8
2014-Oct-22 19:33N 48°28' W 124°41'1211.5
2014-Oct-22 18:33N 48°28' W 124°58'9 9.2
2014-Oct-22 17:33N 48°30' W 125°12'8 8.0
2014-Oct-22 16:33N 48°34' W 125°22'7 7.3
2014-Oct-22 15:33N 48°38' W 125°31'7 6.9
2014-Oct-22 14:33N 48°43' W 125°39'7 7.2
2014-Oct-22 13:33N 48°48' W 125°47'8 7.7
2014-Oct-22 12:33N 48°53' W 125°56'7 7.3
2014-Oct-22 11:33N 48°58' W 126°04'7 7.3
2014-Oct-22 10:33N 49°03' W 126°12'7 7.1
2014-Oct-22 09:33N 49°08' W 126°20'8 8.3
2014-Oct-22 08:33N 49°12' W 126°30'9 8.6
2014-Oct-22 07:33N 49°17' W 126°41'10 9.6
2014-Oct-22 06:33N 49°24' W 126°51'1010.2
2014-Oct-22 05:33N 49°31' W 127°03'1010.0
2014-Oct-22 04:32N 49°37' W 127°15'  

Dump ship's entire track history